createdAt,value
2018-01-03T00:00:14.076Z,989.63
2018-01-03T00:01:14.055Z,989.68
2018-01-03T00:02:14.035Z,989.64
2018-01-03T00:03:14.015Z,989.59
2018-01-03T00:04:13.994Z,989.64
2018-01-03T00:05:13.972Z,989.59
2018-01-03T00:06:13.951Z,989.56
2018-01-03T00:07:13.931Z,989.49
2018-01-03T00:08:13.910Z,989.53
2018-01-03T00:09:13.888Z,989.52
2018-01-03T00:10:13.868Z,989.41
2018-01-03T00:11:13.852Z,989.39
2018-01-03T00:12:13.832Z,989.35
2018-01-03T00:13:13.809Z,989.33
2018-01-03T00:14:13.796Z,989.31
2018-01-03T00:15:13.768Z,989.28
2018-01-03T00:16:13.749Z,989.2
2018-01-03T00:17:13.727Z,989.17
2018-01-03T00:18:13.709Z,989.05
2018-01-03T00:19:13.685Z,989.06
2018-01-03T00:20:13.674Z,988.99
2018-01-03T00:21:13.644Z,989.03
2018-01-03T00:22:13.660Z,988.95
2018-01-03T00:23:13.606Z,988.92
2018-01-03T00:24:13.785Z,988.85
2018-01-03T00:25:13.564Z,988.77
2018-01-03T00:26:13.560Z,988.76
2018-01-03T00:27:13.521Z,988.67
2018-01-03T00:28:13.500Z,988.64
2018-01-03T00:29:13.481Z,988.6
2018-01-03T00:30:13.460Z,988.54
2018-01-03T00:31:13.440Z,988.44
2018-01-03T00:32:13.420Z,988.43
2018-01-03T00:33:13.399Z,988.37
2018-01-03T00:34:13.378Z,988.32
2018-01-03T00:35:13.357Z,988.39
2018-01-03T00:36:13.338Z,988.28
2018-01-03T00:37:13.321Z,988.13
2018-01-03T00:38:13.297Z,988.2
2018-01-03T00:39:13.275Z,988.11
2018-01-03T00:40:13.254Z,988.11
2018-01-03T00:41:13.236Z,988.11
2018-01-03T00:42:13.215Z,988.11
2018-01-03T00:43:13.196Z,988.08
2018-01-03T00:44:13.174Z,988.08
2018-01-03T00:45:13.155Z,988.07
2018-01-03T00:46:13.133Z,988.04
2018-01-03T00:47:13.113Z,988.06
2018-01-03T00:48:13.092Z,988
2018-01-03T00:49:13.077Z,988.02
2018-01-03T00:50:13.053Z,988.04
2018-01-03T00:51:13.032Z,988.01
2018-01-03T00:52:13.014Z,987.94
2018-01-03T00:53:12.994Z,987.85
2018-01-03T00:54:12.973Z,987.85
2018-01-03T00:55:12.951Z,987.67
2018-01-03T00:56:12.930Z,987.66
2018-01-03T00:57:12.910Z,987.54
2018-01-03T00:58:12.895Z,987.59
2018-01-03T00:59:12.869Z,987.54
2018-01-03T01:00:12.853Z,987.46
2018-01-03T01:01:12.830Z,987.37
2018-01-03T01:02:12.810Z,987.33
2018-01-03T01:03:12.791Z,987.23
2018-01-03T01:04:12.771Z,987.2
2018-01-03T01:05:12.749Z,987.14
2018-01-03T01:06:12.728Z,987.01
2018-01-03T01:07:12.708Z,986.86
2018-01-03T01:08:12.687Z,986.79
2018-01-03T01:09:12.668Z,986.85
2018-01-03T01:10:12.655Z,986.83
2018-01-03T01:11:12.632Z,986.71
2018-01-03T01:12:12.607Z,986.76
2018-01-03T01:13:12.587Z,986.61
2018-01-03T01:14:12.567Z,986.57
2018-01-03T01:15:12.548Z,986.52
2018-01-03T01:16:12.525Z,986.48
2018-01-03T01:17:12.507Z,986.32
2018-01-03T01:18:12.487Z,986.25
2018-01-03T01:19:12.469Z,986.12
2018-01-03T01:20:12.452Z,986.09
2018-01-03T01:21:12.425Z,986.1
2018-01-03T01:22:12.407Z,986.02
2018-01-03T01:23:12.388Z,985.92
2018-01-03T01:24:12.365Z,985.87
2018-01-03T01:25:12.345Z,985.74
2018-01-03T01:26:12.528Z,985.62
2018-01-03T01:27:12.304Z,985.63
2018-01-03T01:28:12.286Z,985.65
2018-01-03T01:29:12.265Z,985.6
2018-01-03T01:30:12.247Z,985.55
2018-01-03T01:31:12.224Z,985.53
2018-01-03T01:32:12.205Z,985.37
2018-01-03T01:33:12.185Z,985.27
2018-01-03T01:34:12.163Z,985.32
2018-01-03T01:35:12.156Z,985.14
2018-01-03T01:36:12.124Z,984.99
2018-01-03T01:37:12.106Z,984.97
2018-01-03T01:38:12.082Z,984.89
2018-01-03T01:39:12.063Z,984.78
2018-01-03T01:40:12.044Z,984.7
2018-01-03T01:41:12.030Z,984.73
2018-01-03T01:42:12.004Z,984.59
2018-01-03T01:43:11.983Z,984.57
2018-01-03T01:44:11.965Z,984.4
2018-01-03T01:45:11.944Z,984.35
2018-01-03T01:46:11.924Z,984.29
2018-01-03T01:47:11.903Z,984.22
2018-01-03T01:48:11.886Z,984.24
2018-01-03T01:49:11.865Z,984.09
2018-01-03T01:50:11.845Z,984.08
2018-01-03T01:51:11.827Z,983.97
2018-01-03T01:52:11.806Z,983.97
2018-01-03T01:53:11.785Z,983.93
2018-01-03T01:54:11.764Z,983.97
2018-01-03T01:55:11.746Z,983.82
2018-01-03T01:56:11.725Z,983.81
2018-01-03T01:57:11.716Z,983.79
2018-01-03T01:58:11.684Z,983.77
2018-01-03T01:59:11.666Z,983.85
2018-01-03T02:00:11.647Z,983.66
2018-01-03T02:01:11.628Z,983.64
2018-01-03T02:02:11.607Z,983.63
2018-01-03T02:03:11.586Z,983.6
2018-01-03T02:04:11.566Z,983.51
2018-01-03T02:05:11.547Z,983.44
2018-01-03T02:06:11.527Z,983.4
2018-01-03T02:07:11.507Z,983.24
2018-01-03T02:08:11.487Z,983.2
2018-01-03T02:09:11.469Z,983.21
2018-01-03T02:10:11.449Z,983.2
2018-01-03T02:11:11.429Z,983.12
2018-01-03T02:12:11.408Z,983.12
2018-01-03T02:13:11.389Z,983.03
2018-01-03T02:14:11.367Z,982.91
2018-01-03T02:15:11.348Z,982.83
2018-01-03T02:16:11.331Z,982.72
2018-01-03T02:17:11.312Z,982.58
2018-01-03T02:18:11.289Z,982.39
2018-01-03T02:19:11.270Z,982.31
2018-01-03T02:20:11.253Z,982.09
2018-01-03T02:21:11.230Z,982
2018-01-03T02:22:11.211Z,981.86
2018-01-03T02:23:11.191Z,981.77
2018-01-03T02:24:11.373Z,981.67
2018-01-03T02:25:11.152Z,981.59
2018-01-03T02:26:11.132Z,981.51
2018-01-03T02:27:11.114Z,981.48
2018-01-03T02:28:11.091Z,981.38
2018-01-03T02:29:11.070Z,981.26
2018-01-03T02:30:11.051Z,981.16
2018-01-03T02:31:11.040Z,981.11
2018-01-03T02:32:11.012Z,981.08
2018-01-03T02:33:10.994Z,981.06
2018-01-03T02:34:10.975Z,980.97
2018-01-03T02:35:10.954Z,980.98
2018-01-03T02:36:10.939Z,980.91
2018-01-03T02:37:10.915Z,980.93
2018-01-03T02:38:10.896Z,980.97
2018-01-03T02:39:10.873Z,980.91
2018-01-03T02:40:10.856Z,980.95
2018-01-03T02:41:10.835Z,980.8
2018-01-03T02:42:10.864Z,980.83
2018-01-03T02:43:10.797Z,980.66
2018-01-03T02:44:10.779Z,980.58
2018-01-03T02:45:10.760Z,980.51
2018-01-03T02:46:10.738Z,980.35
2018-01-03T02:47:10.727Z,980.26
2018-01-03T02:48:10.697Z,980.23
2018-01-03T02:49:10.678Z,980.16
2018-01-03T02:50:10.659Z,980.13
2018-01-03T02:51:10.640Z,980.02
2018-01-03T02:52:10.617Z,980
2018-01-03T02:53:10.600Z,980.09
2018-01-03T02:54:10.579Z,980.07
2018-01-03T02:55:10.558Z,980.09
2018-01-03T02:56:10.539Z,979.89
2018-01-03T02:57:10.521Z,979.89
2018-01-03T02:58:10.499Z,979.74
2018-01-03T02:59:10.483Z,979.65
2018-01-03T03:00:10.462Z,979.57
2018-01-03T03:01:10.440Z,979.52
2018-01-03T03:02:10.419Z,979.52
2018-01-03T03:03:10.400Z,979.45
2018-01-03T03:04:10.381Z,979.46
2018-01-03T03:05:10.364Z,979.43
2018-01-03T03:06:10.348Z,979.39
2018-01-03T03:07:10.321Z,979.23
2018-01-03T03:08:10.301Z,979.16
2018-01-03T03:09:10.284Z,979.1
2018-01-03T03:10:10.263Z,978.91
2018-01-03T03:11:10.243Z,978.85
2018-01-03T03:12:10.222Z,978.79
2018-01-03T03:13:10.205Z,978.85
2018-01-03T03:14:10.184Z,978.83
2018-01-03T03:15:10.165Z,978.85
2018-01-03T03:16:10.145Z,978.74
2018-01-03T03:17:10.124Z,978.52
2018-01-03T03:18:10.108Z,978.56
2018-01-03T03:19:10.088Z,978.53
2018-01-03T03:20:10.067Z,978.41
2018-01-03T03:21:10.047Z,978.48
2018-01-03T03:22:10.027Z,978.43
2018-01-03T03:23:10.011Z,978.43
2018-01-03T03:24:09.987Z,978.42
2018-01-03T03:25:09.970Z,978.17
2018-01-03T03:26:09.954Z,978.14
2018-01-03T03:27:09.932Z,978
2018-01-03T03:28:09.910Z,977.92
2018-01-03T03:29:09.892Z,977.81
2018-01-03T03:30:09.875Z,977.94
2018-01-03T03:31:09.857Z,977.74
2018-01-03T03:32:09.836Z,977.5
2018-01-03T03:33:09.815Z,977.4
2018-01-03T03:34:09.797Z,977.53
2018-01-03T03:35:09.776Z,977.43
2018-01-03T03:36:09.758Z,977.15
2018-01-03T03:37:09.737Z,977.08
2018-01-03T03:38:09.719Z,977.24
2018-01-03T03:39:09.697Z,977.36
2018-01-03T03:40:09.679Z,977.12
2018-01-03T03:41:09.660Z,977.23
2018-01-03T03:42:09.641Z,977.04
2018-01-03T03:43:09.621Z,977.02
2018-01-03T03:44:09.602Z,977.37
2018-01-03T03:45:09.582Z,977.18
2018-01-03T03:46:09.563Z,976.97
2018-01-03T03:47:09.544Z,976.88
2018-01-03T03:48:09.528Z,976.99
2018-01-03T03:49:09.506Z,976.87
2018-01-03T03:50:09.487Z,976.7
2018-01-03T03:51:09.518Z,976.86
2018-01-03T03:52:09.449Z,976.77
2018-01-03T03:53:09.479Z,976.73
2018-01-03T03:54:09.412Z,976.75
2018-01-03T03:55:09.391Z,976.51
2018-01-03T03:56:09.372Z,976.53
2018-01-03T03:57:09.355Z,976.43
2018-01-03T03:58:09.335Z,976.33
2018-01-03T03:59:09.316Z,976.31
2018-01-03T04:00:09.345Z,976.17
2018-01-03T04:01:09.278Z,976.28
2018-01-03T04:02:09.258Z,976.15
2018-01-03T04:03:09.240Z,976.07
2018-01-03T04:04:09.222Z,976.1
2018-01-03T04:05:09.202Z,975.96
2018-01-03T04:06:09.184Z,975.92
2018-01-03T04:07:09.163Z,975.99
2018-01-03T04:08:09.146Z,975.79
2018-01-03T04:09:09.128Z,975.9
2018-01-03T04:10:09.109Z,975.94
2018-01-03T04:11:09.091Z,975.99
2018-01-03T04:12:09.070Z,975.72
2018-01-03T04:13:09.053Z,975.79
2018-01-03T04:14:09.032Z,975.75
2018-01-03T04:15:09.012Z,975.72
2018-01-03T04:16:08.993Z,975.45
2018-01-03T04:17:08.976Z,975.65
2018-01-03T04:18:08.958Z,975.77
2018-01-03T04:19:08.939Z,975.54
2018-01-03T04:20:08.920Z,975.57
2018-01-03T04:21:08.902Z,975.61
2018-01-03T04:22:08.881Z,975.46
2018-01-03T04:23:08.862Z,975.71
2018-01-03T04:24:08.849Z,975.6
2018-01-03T04:25:08.826Z,975.57
2018-01-03T04:26:08.807Z,975.42
2018-01-03T04:27:08.789Z,975.62
2018-01-03T04:28:08.770Z,975.35
2018-01-03T04:29:08.750Z,975.86
2018-01-03T04:30:08.734Z,975.82
2018-01-03T04:31:08.714Z,976.17
2018-01-03T04:32:08.695Z,976.17
2018-01-03T04:33:08.676Z,976.86
2018-01-03T04:34:08.656Z,977.23
2018-01-03T04:35:08.642Z,977.71
2018-01-03T04:36:08.622Z,978.01
2018-01-03T04:37:08.605Z,977.81
2018-01-03T04:38:08.608Z,977.77
2018-01-03T04:39:08.564Z,977.61
2018-01-03T04:40:08.545Z,977.46
2018-01-03T04:41:08.579Z,977.37
2018-01-03T04:42:08.509Z,977.14
2018-01-03T04:43:08.490Z,977.32
2018-01-03T04:44:08.470Z,977.52
2018-01-03T04:45:08.454Z,977.25
2018-01-03T04:46:08.434Z,977.41
2018-01-03T04:47:08.415Z,977.58
2018-01-03T04:48:08.399Z,977.41
2018-01-03T04:49:08.379Z,977.37
2018-01-03T04:50:08.361Z,977.34
2018-01-03T04:51:08.339Z,977.24
2018-01-03T04:52:08.320Z,977.34
2018-01-03T04:53:08.302Z,977.32
2018-01-03T04:54:08.284Z,977.18
2018-01-03T04:55:08.264Z,977.3
2018-01-03T04:56:08.243Z,977.29
2018-01-03T04:57:08.227Z,977.25
2018-01-03T04:58:08.207Z,977.1
2018-01-03T04:59:08.189Z,976.93
2018-01-03T05:00:08.171Z,976.95
2018-01-03T05:01:08.155Z,977
2018-01-03T05:02:08.130Z,977.04
2018-01-03T05:03:08.112Z,976.97
2018-01-03T05:04:08.092Z,977.01
2018-01-03T05:05:08.079Z,977
2018-01-03T05:06:08.053Z,977.08
2018-01-03T05:07:08.035Z,977.12
2018-01-03T05:08:08.016Z,977.16
2018-01-03T05:09:07.994Z,977.16
2018-01-03T05:10:07.976Z,977.18
2018-01-03T05:11:07.956Z,977.14
2018-01-03T05:12:07.984Z,977.02
2018-01-03T05:13:07.915Z,976.89
2018-01-03T05:14:07.898Z,976.68
2018-01-03T05:15:07.877Z,976.59
2018-01-03T05:16:07.860Z,976.39
2018-01-03T05:17:07.841Z,976.27
2018-01-03T05:18:07.820Z,976.13
2018-01-03T05:19:07.802Z,976.11
2018-01-03T05:20:07.782Z,976.1
2018-01-03T05:21:07.762Z,976.27
2018-01-03T05:22:07.745Z,976.29
2018-01-03T05:23:07.725Z,976.44
2018-01-03T05:24:07.705Z,976.52
2018-01-03T05:25:07.685Z,976.56
2018-01-03T05:26:07.668Z,976.53
2018-01-03T05:27:07.647Z,976.53
2018-01-03T05:28:07.628Z,976.57
2018-01-03T05:29:07.615Z,976.59
2018-01-03T05:30:07.590Z,976.72
2018-01-03T05:31:07.571Z,976.78
2018-01-03T05:32:07.552Z,976.77
2018-01-03T05:33:07.536Z,976.75
2018-01-03T05:34:07.515Z,976.86
2018-01-03T05:35:07.495Z,976.89
2018-01-03T05:36:07.677Z,976.97
2018-01-03T05:37:07.457Z,976.99
2018-01-03T05:38:07.440Z,976.95
2018-01-03T05:39:07.419Z,977.08
2018-01-03T05:40:07.400Z,977.22
2018-01-03T05:41:07.382Z,977.08
2018-01-03T05:42:07.365Z,977.11
2018-01-03T05:43:07.346Z,977.13
2018-01-03T05:44:07.325Z,977.1
2018-01-03T05:45:07.311Z,977.13
2018-01-03T05:46:07.286Z,977.09
2018-01-03T05:47:07.267Z,977.12
2018-01-03T05:48:07.249Z,977.25
2018-01-03T05:49:07.231Z,977.17
2018-01-03T05:50:07.212Z,977.14
2018-01-03T05:51:07.193Z,977.26
2018-01-03T05:52:07.177Z,977.21
2018-01-03T05:53:07.152Z,977.11
2018-01-03T05:54:07.135Z,977.04
2018-01-03T05:55:07.115Z,977.09
2018-01-03T05:56:07.097Z,977.05
2018-01-03T05:57:07.078Z,976.97
2018-01-03T05:58:07.060Z,977.01
2018-01-03T05:59:07.042Z,976.75
2018-01-03T06:00:07.023Z,976.84
2018-01-03T06:01:07.049Z,976.8
2018-01-03T06:02:06.985Z,976.86
2018-01-03T06:03:06.973Z,976.85
2018-01-03T06:04:06.947Z,976.86
2018-01-03T06:05:06.929Z,976.94
2018-01-03T06:06:06.912Z,976.94
2018-01-03T06:07:06.892Z,976.95
2018-01-03T06:08:06.873Z,977.28
2018-01-03T06:09:06.855Z,977.07
2018-01-03T06:10:06.837Z,977.15
2018-01-03T06:11:06.817Z,977.23
2018-01-03T06:12:06.798Z,977.13
2018-01-03T06:13:06.780Z,977.1
2018-01-03T06:14:06.763Z,977.07
2018-01-03T06:15:06.741Z,977.1
2018-01-03T06:16:06.726Z,977.08
2018-01-03T06:17:06.704Z,976.97
2018-01-03T06:18:06.686Z,977.09
2018-01-03T06:19:06.666Z,976.93
2018-01-03T06:20:06.648Z,977.15
2018-01-03T06:21:06.631Z,977.19
2018-01-03T06:22:06.612Z,977.16
2018-01-03T06:23:06.594Z,977.3
2018-01-03T06:24:06.574Z,977.17
2018-01-03T06:25:06.561Z,977.26
2018-01-03T06:26:06.540Z,977.13
2018-01-03T06:27:06.519Z,976.93
2018-01-03T06:28:06.502Z,977.12
2018-01-03T06:29:06.482Z,976.89
2018-01-03T06:30:06.463Z,976.91
2018-01-03T06:31:06.445Z,976.92
2018-01-03T06:32:06.432Z,976.94
2018-01-03T06:33:06.417Z,976.84
2018-01-03T06:34:06.391Z,976.86
2018-01-03T06:35:06.378Z,976.86
2018-01-03T06:36:06.398Z,976.9
2018-01-03T06:37:06.335Z,976.97
2018-01-03T06:38:06.316Z,976.79
2018-01-03T06:39:06.298Z,976.84
2018-01-03T06:40:06.278Z,976.79
2018-01-03T06:41:06.260Z,976.7
2018-01-03T06:42:06.291Z,976.67
2018-01-03T06:43:06.225Z,976.74
2018-01-03T06:44:06.204Z,976.68
2018-01-03T06:45:06.184Z,976.51
2018-01-03T06:46:06.167Z,976.4
2018-01-03T06:47:06.147Z,976.34
2018-01-03T06:48:06.129Z,976.28
2018-01-03T06:49:06.113Z,976.22
2018-01-03T06:50:06.092Z,976.38
2018-01-03T06:51:06.076Z,976.25
2018-01-03T06:52:06.053Z,976.11
2018-01-03T06:53:06.036Z,976.11
2018-01-03T06:54:06.017Z,976.1
2018-01-03T06:55:05.998Z,976.03
2018-01-03T06:56:05.978Z,976.15
2018-01-03T06:57:05.965Z,976.18
2018-01-03T06:58:05.945Z,976.15
2018-01-03T06:59:05.923Z,976.19
2018-01-03T07:00:05.905Z,976.26
2018-01-03T07:01:05.891Z,976.24
2018-01-03T07:02:05.871Z,976.23
2018-01-03T07:03:05.849Z,976.35
2018-01-03T07:04:05.828Z,976.29
2018-01-03T07:05:05.810Z,976.25
2018-01-03T07:06:05.791Z,976.24
2018-01-03T07:07:05.772Z,976.3
2018-01-03T07:08:05.754Z,976.31
2018-01-03T07:09:05.736Z,976.26
2018-01-03T07:10:05.716Z,976.22
2018-01-03T07:11:05.698Z,976.22
2018-01-03T07:12:05.678Z,976.15
2018-01-03T07:13:05.664Z,976.33
2018-01-03T07:14:05.641Z,976.26
2018-01-03T07:15:05.622Z,976.17
2018-01-03T07:16:05.603Z,976.32
2018-01-03T07:17:05.583Z,976.45
2018-01-03T07:18:05.566Z,976.19
2018-01-03T07:19:05.550Z,976.23
2018-01-03T07:20:05.536Z,976.13
2018-01-03T07:21:05.508Z,976.17
2018-01-03T07:22:05.490Z,976.1
2018-01-03T07:23:05.480Z,976.3
2018-01-03T07:24:05.454Z,976.4
2018-01-03T07:25:05.437Z,976.18
2018-01-03T07:26:05.415Z,976.27
2018-01-03T07:27:05.399Z,976.26
2018-01-03T07:28:05.378Z,976.36
2018-01-03T07:29:05.360Z,976.35
2018-01-03T07:30:05.340Z,976.31
2018-01-03T07:31:05.322Z,976.22
2018-01-03T07:32:05.302Z,976.4
2018-01-03T07:33:05.283Z,976.44
2018-01-03T07:34:05.264Z,976.35
2018-01-03T07:35:05.244Z,976.43
2018-01-03T07:36:05.225Z,976.41
2018-01-03T07:37:05.212Z,976.49
2018-01-03T07:38:05.192Z,976.56
2018-01-03T07:39:05.171Z,976.58
2018-01-03T07:40:05.151Z,976.79
2018-01-03T07:41:05.133Z,976.72
2018-01-03T07:42:05.114Z,976.96
2018-01-03T07:43:05.095Z,976.72
2018-01-03T07:44:05.076Z,976.75
2018-01-03T07:45:05.058Z,976.62
2018-01-03T07:46:05.041Z,976.61
2018-01-03T07:47:05.019Z,976.55
2018-01-03T07:48:05.002Z,976.68
2018-01-03T07:49:04.981Z,976.6
2018-01-03T07:50:04.961Z,976.66
2018-01-03T07:51:04.943Z,976.6
2018-01-03T07:52:04.927Z,976.63
2018-01-03T07:53:04.903Z,976.68
2018-01-03T07:54:04.895Z,976.63
2018-01-03T07:55:04.866Z,976.74
2018-01-03T07:56:04.847Z,976.81
2018-01-03T07:57:04.827Z,976.85
2018-01-03T07:58:04.805Z,976.86
2018-01-03T07:59:04.789Z,976.94
2018-01-03T08:00:04.770Z,976.88
2018-01-03T08:01:04.748Z,977.07
2018-01-03T08:02:04.731Z,977.26
2018-01-03T08:03:04.708Z,977.4
2018-01-03T08:04:04.689Z,977.54
2018-01-03T08:05:04.669Z,977.38
2018-01-03T08:06:04.648Z,977.83
2018-01-03T08:07:04.629Z,977.72
2018-01-03T08:08:04.611Z,977.81
2018-01-03T08:09:04.590Z,977.67
2018-01-03T08:10:04.569Z,977.74
2018-01-03T08:11:04.552Z,977.72
2018-01-03T08:12:04.530Z,977.8
2018-01-03T08:13:04.512Z,977.88
2018-01-03T08:14:04.491Z,977.71
2018-01-03T08:15:04.473Z,977.88
2018-01-03T08:16:04.449Z,977.78
2018-01-03T08:17:04.430Z,978
2018-01-03T08:18:04.408Z,977.84
2018-01-03T08:19:04.393Z,977.93
2018-01-03T08:20:04.368Z,978.04
2018-01-03T08:21:04.553Z,977.89
2018-01-03T08:22:04.328Z,978.1
2018-01-03T08:23:04.307Z,978.12
2018-01-03T08:24:04.289Z,978.11
2018-01-03T08:25:04.469Z,978.07
2018-01-03T08:26:04.249Z,978.02
2018-01-03T08:27:04.227Z,978.11
2018-01-03T08:28:04.207Z,978.16
2018-01-03T08:29:04.194Z,978.03
2018-01-03T08:30:04.164Z,978
2018-01-03T08:31:04.148Z,977.99
2018-01-03T08:32:04.125Z,978.1
2018-01-03T08:33:04.104Z,978.31
2018-01-03T08:34:04.084Z,978.06
2018-01-03T08:35:04.063Z,978.29
2018-01-03T08:36:04.046Z,978.24
2018-01-03T08:37:04.023Z,978.18
2018-01-03T08:38:04.002Z,978.25
2018-01-03T08:39:03.984Z,978.29
2018-01-03T08:40:03.963Z,978.02
2018-01-03T08:41:03.944Z,978.22
2018-01-03T08:42:03.931Z,978.27
2018-01-03T08:43:03.902Z,978.21
2018-01-03T08:44:03.882Z,978.32
2018-01-03T08:45:03.861Z,978.24
2018-01-03T08:46:03.844Z,978.28
2018-01-03T08:47:03.823Z,978.33
2018-01-03T08:48:03.806Z,978.32
2018-01-03T08:49:03.782Z,978.62
2018-01-03T08:50:03.763Z,978.41
2018-01-03T08:51:03.744Z,978.29
2018-01-03T08:52:03.723Z,978.27
2018-01-03T08:53:03.702Z,978.38
2018-01-03T08:54:03.683Z,978.49
2018-01-03T08:55:03.665Z,978.4
2018-01-03T08:56:03.647Z,978.38
2018-01-03T08:57:03.624Z,978.51
2018-01-03T08:58:03.607Z,978.35
2018-01-03T08:59:03.586Z,978.53
2018-01-03T09:00:03.566Z,978.41
2018-01-03T09:01:03.548Z,978.23
2018-01-03T09:02:03.526Z,978.38
2018-01-03T09:03:03.508Z,978.34
2018-01-03T09:04:03.488Z,978.61
2018-01-03T09:05:03.469Z,978.14
2018-01-03T09:06:03.452Z,978.36
2018-01-03T09:07:03.431Z,978.37
2018-01-03T09:08:03.413Z,978.52
2018-01-03T09:09:03.393Z,978.35
2018-01-03T09:10:03.372Z,978.38
2018-01-03T09:11:03.349Z,978.54
2018-01-03T09:12:03.333Z,978.46
2018-01-03T09:13:03.312Z,978.51
2018-01-03T09:14:03.294Z,978.43
2018-01-03T09:15:03.272Z,978.44
2018-01-03T09:16:03.253Z,978.73
2018-01-03T09:17:03.236Z,978.55
2018-01-03T09:18:03.215Z,978.53
2018-01-03T09:19:03.199Z,978.58
2018-01-03T09:20:03.186Z,978.5
2018-01-03T09:21:03.158Z,978.56
2018-01-03T09:22:03.138Z,978.58
2018-01-03T09:23:03.117Z,978.56
2018-01-03T09:24:03.099Z,978.5
2018-01-03T09:25:03.078Z,978.45
2018-01-03T09:26:03.061Z,978.6
2018-01-03T09:27:03.041Z,978.35
2018-01-03T09:28:03.020Z,978.69
2018-01-03T09:29:03.000Z,978.63
2018-01-03T09:30:02.981Z,978.68
2018-01-03T09:31:02.962Z,978.63
2018-01-03T09:32:03.016Z,978.71
2018-01-03T09:33:02.929Z,978.71
2018-01-03T09:34:02.904Z,978.77
2018-01-03T09:35:02.887Z,978.74
2018-01-03T09:36:02.868Z,978.9
2018-01-03T09:37:02.848Z,978.87
2018-01-03T09:38:02.828Z,978.84
2018-01-03T09:39:02.811Z,978.81
2018-01-03T09:40:02.827Z,979.11
2018-01-03T09:41:02.769Z,978.77
2018-01-03T09:42:02.749Z,978.88
2018-01-03T09:43:02.730Z,979.05
2018-01-03T09:44:02.713Z,978.83
2018-01-03T09:45:02.694Z,979.02
2018-01-03T09:46:02.674Z,978.98
2018-01-03T09:47:02.655Z,979.08
2018-01-03T09:48:02.636Z,978.89
2018-01-03T09:49:02.622Z,978.92
2018-01-03T09:50:02.599Z,978.91
2018-01-03T09:51:02.578Z,978.98
2018-01-03T09:52:02.559Z,978.9
2018-01-03T09:53:02.540Z,979.09
2018-01-03T09:54:02.521Z,979.01
2018-01-03T09:55:02.501Z,979.01
2018-01-03T09:56:02.482Z,978.94
2018-01-03T09:57:02.465Z,979
2018-01-03T09:58:02.444Z,978.97
2018-01-03T09:59:02.426Z,979.07
2018-01-03T10:00:02.406Z,979.17
2018-01-03T10:01:02.391Z,979.15
2018-01-03T10:02:02.371Z,979.01
2018-01-03T10:03:02.351Z,979.1
2018-01-03T10:04:02.330Z,979.09
2018-01-03T10:05:02.312Z,979.13
2018-01-03T10:06:02.297Z,979.3
2018-01-03T10:07:02.274Z,979.13
2018-01-03T10:08:02.260Z,979.21
2018-01-03T10:09:02.236Z,979.2
2018-01-03T10:10:02.220Z,978.92
2018-01-03T10:11:02.200Z,979.24
2018-01-03T10:12:02.180Z,979.11
2018-01-03T10:13:02.162Z,979.05
2018-01-03T10:14:02.142Z,979.14
2018-01-03T10:15:02.124Z,979.13
2018-01-03T10:16:02.104Z,979.04
2018-01-03T10:17:02.086Z,979.17
2018-01-03T10:18:02.068Z,979.12
2018-01-03T10:19:02.049Z,979.02
2018-01-03T10:20:02.029Z,978.91
2018-01-03T10:21:02.012Z,979.12
2018-01-03T10:22:01.994Z,978.98
2018-01-03T10:23:01.976Z,979.12
2018-01-03T10:24:01.955Z,979.08
2018-01-03T10:25:02.141Z,979.09
2018-01-03T10:26:01.917Z,979.03
2018-01-03T10:27:01.901Z,979.05
2018-01-03T10:28:01.884Z,979.12
2018-01-03T10:29:01.859Z,979.65
2018-01-03T10:30:01.846Z,979.06
2018-01-03T10:31:01.824Z,979.34
2018-01-03T10:32:01.807Z,979.1
2018-01-03T10:33:01.789Z,979.22
2018-01-03T10:34:01.767Z,979.28
2018-01-03T10:35:01.747Z,979.58
2018-01-03T10:36:01.730Z,979.22
2018-01-03T10:37:01.713Z,979.32
2018-01-03T10:38:01.692Z,979.22
2018-01-03T10:39:01.677Z,979.48
2018-01-03T10:40:01.658Z,979.52
2018-01-03T10:41:01.637Z,979.29
2018-01-03T10:42:01.623Z,979.35
2018-01-03T10:43:01.597Z,979.36
2018-01-03T10:44:01.578Z,979.39
2018-01-03T10:45:01.568Z,979.36
2018-01-03T10:46:01.543Z,979.35
2018-01-03T10:47:01.523Z,979.3
2018-01-03T10:48:01.504Z,979.52
2018-01-03T10:49:01.482Z,979.29
2018-01-03T10:50:01.464Z,979.39
2018-01-03T10:51:01.444Z,979.11
2018-01-03T10:52:01.425Z,979.28
2018-01-03T10:53:01.403Z,979.35
2018-01-03T10:54:01.385Z,979.24
2018-01-03T10:55:01.365Z,979.28
2018-01-03T10:56:01.349Z,979.18
2018-01-03T10:57:01.327Z,979.38
2018-01-03T10:58:01.309Z,979.21
2018-01-03T10:59:01.289Z,979.41
2018-01-03T11:00:01.268Z,979.2
2018-01-03T11:01:01.253Z,979.32
2018-01-03T11:02:01.231Z,979.41
2018-01-03T11:03:01.211Z,979.51
2018-01-03T11:04:01.189Z,979.6
2018-01-03T11:05:01.198Z,979.61
2018-01-03T11:06:01.150Z,979.57
2018-01-03T11:07:01.133Z,979.99
2018-01-03T11:08:01.116Z,979.62
2018-01-03T11:09:01.100Z,979.85
2018-01-03T11:10:01.071Z,979.53
2018-01-03T11:11:01.107Z,979.73
2018-01-03T11:12:01.035Z,979.58
2018-01-03T11:13:01.012Z,979.67
2018-01-03T11:14:00.992Z,979.84
2018-01-03T11:15:00.971Z,979.71
2018-01-03T11:16:00.952Z,979.73
2018-01-03T11:17:00.931Z,979.52
2018-01-03T11:18:00.910Z,979.62
2018-01-03T11:19:00.893Z,979.64
2018-01-03T11:20:00.871Z,979.67
2018-01-03T11:21:00.857Z,979.77
2018-01-03T11:22:00.838Z,979.78
2018-01-03T11:23:00.810Z,979.68
2018-01-03T11:24:00.841Z,979.76
2018-01-03T11:25:00.773Z,980.05
2018-01-03T11:26:00.748Z,979.69
2018-01-03T11:27:00.730Z,979.97
2018-01-03T11:28:00.717Z,979.78
2018-01-03T11:29:00.688Z,979.84
2018-01-03T11:30:00.667Z,979.87
2018-01-03T11:31:00.652Z,979.99
2018-01-03T11:32:00.628Z,979.76
2018-01-03T11:33:00.607Z,979.98
2018-01-03T11:34:00.587Z,980.18
2018-01-03T11:35:00.565Z,979.92
2018-01-03T11:36:00.546Z,979.82
2018-01-03T11:37:00.523Z,979.9
2018-01-03T11:38:00.504Z,979.99
2018-01-03T11:39:00.484Z,979.94
2018-01-03T11:40:00.460Z,980.02
2018-01-03T11:41:00.441Z,979.9
2018-01-03T11:42:00.422Z,979.78
2018-01-03T11:43:00.400Z,979.9
2018-01-03T11:44:00.380Z,980.13
2018-01-03T11:45:00.358Z,979.77
2018-01-03T11:46:00.337Z,979.85
2018-01-03T11:47:00.320Z,979.87
2018-01-03T11:48:00.297Z,979.88
2018-01-03T11:49:00.275Z,979.78
2018-01-03T11:50:00.256Z,979.81
2018-01-03T11:51:00.236Z,979.9
2018-01-03T11:52:00.221Z,979.64
2018-01-03T11:53:00.193Z,979.85
2018-01-03T11:54:00.170Z,979.8
2018-01-03T11:55:00.156Z,979.84
2018-01-03T11:56:00.129Z,979.93
2018-01-03T11:57:00.110Z,979.97
2018-01-03T11:58:00.090Z,979.95
2018-01-03T11:59:00.069Z,980.02
2018-01-03T12:00:00.049Z,980.06
2018-01-03T12:01:00.036Z,980.14
2018-01-03T12:02:00.004Z,979.88
2018-01-03T12:02:59.982Z,979.86
2018-01-03T12:03:59.963Z,979.93
2018-01-03T12:04:59.946Z,980.1
2018-01-03T12:05:59.920Z,980.19
2018-01-03T12:06:59.948Z,980.22
2018-01-03T12:07:59.878Z,980.21
2018-01-03T12:08:59.860Z,979.95
2018-01-03T12:09:59.835Z,980.16
2018-01-03T12:10:59.815Z,980.24
2018-01-03T12:11:59.796Z,980.23
2018-01-03T12:12:59.773Z,980.15
2018-01-03T12:13:59.752Z,980.15
2018-01-03T12:14:59.731Z,980.19
2018-01-03T12:15:59.710Z,980.4
2018-01-03T12:16:59.687Z,980.44
2018-01-03T12:17:59.668Z,980.2
2018-01-03T12:18:59.648Z,980.66
2018-01-03T12:19:59.630Z,980.42
2018-01-03T12:20:59.604Z,980.57
2018-01-03T12:21:59.584Z,980.72
2018-01-03T12:22:59.562Z,980.45
2018-01-03T12:23:59.542Z,980.51
2018-01-03T12:24:59.721Z,980.54
2018-01-03T12:25:59.499Z,980.45
2018-01-03T12:26:59.479Z,980.7
2018-01-03T12:27:59.457Z,980.53
2018-01-03T12:28:59.437Z,980.57
2018-01-03T12:29:59.413Z,980.62
2018-01-03T12:30:59.394Z,980.58